createdAt,value
2023-04-19T00:02:06.821Z,65.80
2023-04-19T00:04:34.136Z,65.70
2023-04-19T00:07:03.249Z,65.80
2023-04-19T00:09:30.038Z,65.90
2023-04-19T00:11:56.803Z,65.80
2023-04-19T00:14:23.675Z,65.90
2023-04-19T00:16:50.549Z,66.00
2023-04-19T00:19:17.885Z,66.00
2023-04-19T00:21:44.673Z,66.00
2023-04-19T00:24:12.130Z,66.90
2023-04-19T00:26:38.954Z,66.00
2023-04-19T00:29:05.752Z,65.90
2023-04-19T00:31:32.628Z,65.80
2023-04-19T00:33:59.333Z,65.70
2023-04-19T00:36:27.049Z,65.90
2023-04-19T00:38:53.847Z,66.00
2023-04-19T00:41:20.746Z,67.20
2023-04-19T00:43:47.881Z,67.30
2023-04-19T00:46:15.217Z,66.30
2023-04-19T00:48:42.814Z,67.40
2023-04-19T00:51:10.645Z,68.10
2023-04-19T00:53:38.043Z,68.20
2023-04-19T00:56:05.236Z,67.40
2023-04-19T00:58:32.598Z,66.00
2023-04-19T01:01:00.404Z,66.00
2023-04-19T01:03:29.801Z,67.10
2023-04-19T01:05:57.231Z,68.00
2023-04-19T01:08:24.355Z,67.30
2023-04-19T01:10:51.543Z,67.20
2023-04-19T01:13:18.323Z,67.40
2023-04-19T01:15:45.262Z,67.50
2023-04-19T01:18:12.343Z,67.60
2023-04-19T01:20:39.143Z,67.60
2023-04-19T01:23:06.154Z,67.70
2023-04-19T01:25:32.929Z,67.70
2023-04-19T01:28:00.236Z,67.80
2023-04-19T01:30:26.994Z,67.70
2023-04-19T01:32:54.019Z,67.70
2023-04-19T01:35:21.462Z,67.60
2023-04-19T01:37:48.322Z,67.70
2023-04-19T01:40:15.667Z,67.70
2023-04-19T01:42:42.505Z,67.60
2023-04-19T01:45:10.434Z,67.60
2023-04-19T01:47:37.428Z,67.80
2023-04-19T01:50:04.912Z,67.90
2023-04-19T01:52:31.775Z,67.90
2023-04-19T01:54:58.647Z,67.90
2023-04-19T01:57:25.446Z,67.90
2023-04-19T01:59:53.760Z,67.80
2023-04-19T02:02:21.594Z,67.80
2023-04-19T02:04:48.551Z,67.70
2023-04-19T02:07:15.324Z,67.80
2023-04-19T02:09:42.297Z,67.90
2023-04-19T02:12:09.529Z,68.10
2023-04-19T02:14:36.493Z,68.20
2023-04-19T02:17:03.503Z,68.10
2023-04-19T02:19:30.587Z,68.00
2023-04-19T02:21:58.152Z,68.10
2023-04-19T02:24:25.396Z,68.20
2023-04-19T02:26:52.207Z,68.30
2023-04-19T02:29:19.209Z,68.30
2023-04-19T02:31:46.568Z,68.40
2023-04-19T02:34:13.790Z,68.50
2023-04-19T02:36:40.900Z,68.60
2023-04-19T02:39:07.672Z,68.50
2023-04-19T02:41:34.516Z,68.40
2023-04-19T02:44:01.312Z,68.70
2023-04-19T02:46:28.479Z,68.60
2023-04-19T02:48:55.308Z,68.60
2023-04-19T02:51:22.484Z,69.30
2023-04-19T02:53:49.255Z,68.40
2023-04-19T02:56:16.578Z,68.30
2023-04-19T02:58:43.416Z,68.20
2023-04-19T03:01:10.344Z,68.20
2023-04-19T03:03:37.674Z,68.30
2023-04-19T03:06:04.684Z,68.30
2023-04-19T03:08:31.516Z,68.40
2023-04-19T03:10:58.709Z,68.40
2023-04-19T03:13:25.637Z,68.50
2023-04-19T03:15:52.829Z,68.50
2023-04-19T03:18:19.644Z,68.50
2023-04-19T03:20:46.747Z,68.50
2023-04-19T03:23:13.500Z,68.70
2023-04-19T03:25:40.363Z,68.40
2023-04-19T03:28:07.206Z,68.40
2023-04-19T03:30:34.048Z,68.50
2023-04-19T03:33:00.972Z,68.60
2023-04-19T03:35:29.374Z,68.70
2023-04-19T03:37:56.173Z,68.90
2023-04-19T03:40:24.149Z,68.90
2023-04-19T03:42:50.988Z,69.10
2023-04-19T03:45:18.158Z,69.00
2023-04-19T03:47:44.997Z,69.00
2023-04-19T03:50:11.791Z,69.00
2023-04-19T03:52:38.636Z,69.00
2023-04-19T03:55:06.122Z,69.00
2023-04-19T03:57:33.011Z,69.00
2023-04-19T04:00:00.472Z,69.10
2023-04-19T04:02:27.775Z,69.00
2023-04-19T04:04:55.354Z,69.00
2023-04-19T04:07:23.269Z,68.80
2023-04-19T04:09:50.287Z,69.00
2023-04-19T04:12:17.659Z,69.10
2023-04-19T04:14:44.447Z,69.10
2023-04-19T04:17:11.286Z,69.10
2023-04-19T04:19:39.208Z,69.30
2023-04-19T04:22:06.729Z,69.20
2023-04-19T04:24:39.083Z,69.30
2023-04-19T04:27:05.908Z,69.30
2023-04-19T04:29:33.286Z,69.30
2023-04-19T04:32:00.207Z,69.50
2023-04-19T04:34:27.075Z,69.80
2023-04-19T04:36:54.191Z,69.90
2023-04-19T04:39:21.064Z,69.60
2023-04-19T04:41:49.649Z,69.30
2023-04-19T04:44:16.850Z,69.40
2023-04-19T04:46:43.621Z,69.50
2023-04-19T04:49:10.493Z,69.70
2023-04-19T04:51:37.616Z,69.60
2023-04-19T04:54:05.627Z,69.60
2023-04-19T04:56:32.673Z,69.50
2023-04-19T04:59:00.680Z,69.40
2023-04-19T05:01:27.561Z,69.30
2023-04-19T05:03:54.788Z,69.40
2023-04-19T05:06:21.541Z,69.40
2023-04-19T05:08:48.298Z,69.50
2023-04-19T05:11:15.186Z,69.50
2023-04-19T05:13:41.938Z,69.40
2023-04-19T05:16:08.802Z,69.40
2023-04-19T05:18:36.293Z,69.40
2023-04-19T05:21:03.965Z,69.30
2023-04-19T05:23:31.249Z,69.40
2023-04-19T05:25:58.031Z,69.60
2023-04-19T05:28:24.852Z,69.60
2023-04-19T05:30:52.547Z,69.30
2023-04-19T05:33:19.346Z,69.00
2023-04-19T05:35:46.281Z,69.20
2023-04-19T05:38:13.242Z,69.40
2023-04-19T05:40:40.787Z,69.50
2023-04-19T05:43:07.585Z,69.40
2023-04-19T05:45:34.441Z,69.40
2023-04-19T05:48:01.669Z,69.20
2023-04-19T05:50:28.499Z,69.20
2023-04-19T05:52:55.415Z,69.20
2023-04-19T05:55:22.645Z,69.10
2023-04-19T05:57:49.674Z,69.40
2023-04-19T06:00:16.775Z,69.40
2023-04-19T06:02:44.756Z,69.20
2023-04-19T06:05:12.008Z,69.30
2023-04-19T06:07:43.416Z,69.10
2023-04-19T06:10:17.502Z,70.00
2023-04-19T06:12:44.406Z,69.30
2023-04-19T06:15:11.961Z,69.30
2023-04-19T06:17:38.861Z,69.30
2023-04-19T06:20:08.273Z,69.30
2023-04-19T06:22:47.710Z,69.30
2023-04-19T06:25:15.113Z,69.40
2023-04-19T06:27:41.912Z,69.50
2023-04-19T06:30:09.451Z,69.60
2023-04-19T06:32:36.285Z,69.70
2023-04-19T06:35:05.095Z,69.90
2023-04-19T06:37:33.845Z,70.00
2023-04-19T06:40:01.714Z,68.90
2023-04-19T06:42:28.577Z,68.90
2023-04-19T06:44:57.202Z,69.00
2023-04-19T06:47:24.118Z,69.10
2023-04-19T06:49:51.012Z,69.90
2023-04-19T06:52:17.843Z,69.10
2023-04-19T06:54:50.975Z,69.00
2023-04-19T06:57:18.616Z,69.30
2023-04-19T06:59:45.490Z,69.50
2023-04-19T07:02:12.610Z,69.80
2023-04-19T07:04:40.196Z,70.70
2023-04-19T07:07:07.135Z,69.70
2023-04-19T07:09:34.176Z,69.60
2023-04-19T07:12:02.472Z,69.60
2023-04-19T07:14:29.306Z,69.80
2023-04-19T07:16:56.148Z,69.80
2023-04-19T07:19:23.415Z,69.90
2023-04-19T07:21:50.987Z,69.70
2023-04-19T07:24:18.081Z,69.70
2023-04-19T07:26:45.284Z,69.70
2023-04-19T07:29:13.225Z,69.80
2023-04-19T07:31:42.019Z,69.70
2023-04-19T07:34:09.005Z,69.70
2023-04-19T07:36:37.004Z,69.60
2023-04-19T07:39:04.928Z,69.70
2023-04-19T07:41:36.127Z,69.60
2023-04-19T07:44:03.261Z,69.40
2023-04-19T07:46:30.220Z,69.40
2023-04-19T07:48:57.074Z,69.40
2023-04-19T07:51:24.791Z,69.30
2023-04-19T07:53:52.302Z,69.20
2023-04-19T07:56:20.251Z,69.10
2023-04-19T07:58:56.530Z,69.20
2023-04-19T08:01:27.556Z,69.20
2023-04-19T08:03:54.620Z,69.20
2023-04-19T08:06:21.848Z,69.10
2023-04-19T08:08:50.103Z,69.20
2023-04-19T08:11:17.053Z,68.90
2023-04-19T08:13:55.083Z,69.10
2023-04-19T08:19:01.748Z,69.00
2023-04-19T08:21:34.602Z,69.00
2023-04-19T08:24:07.842Z,69.10
2023-04-19T08:26:35.048Z,68.70
2023-04-19T08:29:01.913Z,68.60
2023-04-19T08:31:28.843Z,68.40
2023-04-19T08:33:55.773Z,68.20
2023-04-19T08:36:36.965Z,68.00
2023-04-19T08:39:12.278Z,68.00
2023-04-19T08:41:48.058Z,67.80
2023-04-19T08:44:25.329Z,67.50
2023-04-19T08:47:00.258Z,67.70
2023-04-19T08:49:28.315Z,67.70
2023-04-19T08:51:55.920Z,67.90
2023-04-19T08:54:22.700Z,67.60
2023-04-19T08:56:50.163Z,67.60
2023-04-19T08:59:19.044Z,67.70
2023-04-19T09:01:46.506Z,68.10
2023-04-19T09:06:43.703Z,68.30
2023-04-19T09:11:59.754Z,68.50
2023-04-19T09:14:27.273Z,68.20
2023-04-19T09:16:54.761Z,68.20
2023-04-19T09:19:25.300Z,68.20
2023-04-19T09:21:54.153Z,68.20
2023-04-19T09:27:12.578Z,68.50
2023-04-19T09:29:40.021Z,68.40
2023-04-19T09:32:06.967Z,68.50
2023-04-19T09:34:33.803Z,69.20
2023-04-19T09:39:54.860Z,68.20
2023-04-19T09:42:42.376Z,68.10
2023-04-19T09:47:40.221Z,68.30
2023-04-19T09:52:40.355Z,68.50
2023-04-19T09:55:17.777Z,69.20
2023-04-19T09:57:52.943Z,68.40
2023-04-19T10:00:21.791Z,68.60
2023-04-19T10:02:54.782Z,69.00
2023-04-19T10:05:26.449Z,69.20
2023-04-19T10:07:57.467Z,69.00
2023-04-19T10:10:40.596Z,68.90
2023-04-19T10:13:19.861Z,68.90
2023-04-19T10:15:53.593Z,68.70
2023-04-19T10:18:24.124Z,68.20
2023-04-19T10:21:00.078Z,67.80
2023-04-19T10:23:27.474Z,67.80
2023-04-19T10:25:58.037Z,67.50
2023-04-19T10:28:25.350Z,67.40
2023-04-19T10:30:58.505Z,67.10
2023-04-19T10:33:27.179Z,67.00
2023-04-19T10:35:57.985Z,66.50
2023-04-19T10:38:39.345Z,66.20
2023-04-19T10:41:13.572Z,66.30
2023-04-19T10:44:09.446Z,66.00
2023-04-19T10:46:37.708Z,65.90
2023-04-19T10:49:05.343Z,65.80
2023-04-19T10:51:39.569Z,66.00
2023-04-19T10:54:07.160Z,65.90
2023-04-19T10:56:36.727Z,65.80
2023-04-19T10:59:13.267Z,66.00
2023-04-19T11:01:43.322Z,65.80
2023-04-19T11:04:21.648Z,65.90
2023-04-19T11:06:51.636Z,66.20
2023-04-19T11:09:25.235Z,66.20
2023-04-19T11:11:58.407Z,66.50
2023-04-19T11:14:25.215Z,66.20
2023-04-19T11:16:52.094Z,66.20
2023-04-19T11:19:22.123Z,66.30
2023-04-19T11:21:49.582Z,66.20
2023-04-19T11:24:18.898Z,65.90
2023-04-19T11:26:48.857Z,65.90
2023-04-19T11:29:15.910Z,66.20
2023-04-19T11:31:46.792Z,65.10
2023-04-19T11:34:13.949Z,64.80
2023-04-19T11:36:53.431Z,64.60
2023-04-19T11:39:21.801Z,64.70
2023-04-19T11:41:48.678Z,64.50
2023-04-19T11:44:21.849Z,64.20
2023-04-19T11:46:59.215Z,64.00
2023-04-19T11:49:29.903Z,63.90
2023-04-19T11:52:02.431Z,63.70
2023-04-19T11:54:31.116Z,63.40
2023-04-19T11:57:05.310Z,63.00
2023-04-19T11:59:33.002Z,62.90
2023-04-19T12:02:10.542Z,62.50
2023-04-19T12:04:37.775Z,61.90
2023-04-19T12:07:05.536Z,61.70
2023-04-19T12:09:36.251Z,62.00
2023-04-19T12:12:03.240Z,62.10
2023-04-19T12:14:31.618Z,62.20
2023-04-19T12:17:11.882Z,62.10
2023-04-19T12:19:43.233Z,62.10
2023-04-19T12:22:11.792Z,62.00
2023-04-19T12:24:39.829Z,61.90
2023-04-19T12:27:06.701Z,61.70
2023-04-19T12:29:34.701Z,61.50
2023-04-19T12:32:01.607Z,61.50
2023-04-19T12:34:29.126Z,61.00
2023-04-19T12:36:56.247Z,61.20
2023-04-19T12:39:23.548Z,61.00
2023-04-19T12:41:50.509Z,61.40
2023-04-19T12:44:17.370Z,60.60
2023-04-19T12:46:44.226Z,61.30
2023-04-19T12:49:11.410Z,60.50
2023-04-19T12:51:38.314Z,60.60
2023-04-19T12:54:07.513Z,60.50
2023-04-19T12:56:34.961Z,60.30
2023-04-19T12:59:02.357Z,60.00
2023-04-19T13:01:29.269Z,59.50
2023-04-19T13:03:59.073Z,59.70
2023-04-19T13:06:27.891Z,59.50
2023-04-19T13:08:55.203Z,59.20
2023-04-19T13:11:23.539Z,59.30
2023-04-19T13:13:51.631Z,59.10
2023-04-19T13:16:18.893Z,59.10
2023-04-19T13:18:45.737Z,58.70
2023-04-19T13:21:13.030Z,58.40
2023-04-19T13:23:40.255Z,58.00
2023-04-19T13:26:07.224Z,58.10
2023-04-19T13:28:35.940Z,59.00
2023-04-19T13:31:04.423Z,58.60
2023-04-19T13:33:31.359Z,58.90
2023-04-19T13:35:58.286Z,59.40
2023-04-19T13:38:25.555Z,59.30
2023-04-19T13:40:52.415Z,59.00
2023-04-19T13:43:19.241Z,59.20
2023-04-19T13:45:46.564Z,58.90
2023-04-19T13:48:13.413Z,58.90
2023-04-19T13:50:40.303Z,58.60
2023-04-19T13:53:07.256Z,58.10
2023-04-19T13:55:34.068Z,58.90
2023-04-19T13:58:01.066Z,59.00
2023-04-19T14:00:28.200Z,58.50
2023-04-19T14:02:55.671Z,59.00
2023-04-19T14:05:22.711Z,58.60
2023-04-19T14:07:49.820Z,58.80
2023-04-19T14:10:16.670Z,59.30
2023-04-19T14:12:43.561Z,59.10
2023-04-19T14:15:10.902Z,58.90
2023-04-19T14:17:37.738Z,59.00
2023-04-19T14:20:07.495Z,58.40
2023-04-19T14:22:35.578Z,57.80
2023-04-19T14:25:04.007Z,56.60
2023-04-19T14:27:31.360Z,56.50
2023-04-19T14:29:58.211Z,57.20
2023-04-19T14:32:26.959Z,56.50
2023-04-19T14:34:54.936Z,56.00
2023-04-19T14:37:22.668Z,56.30
2023-04-19T14:39:49.440Z,56.40
2023-04-19T14:42:16.253Z,56.70
2023-04-19T14:44:43.052Z,56.20
2023-04-19T14:47:09.887Z,55.80
2023-04-19T14:49:37.703Z,56.60
2023-04-19T14:52:05.023Z,56.30
2023-04-19T14:54:31.858Z,56.40
2023-04-19T14:56:58.654Z,56.50
2023-04-19T14:59:26.414Z,56.30
2023-04-19T15:01:54.536Z,56.50
2023-04-19T15:04:21.726Z,56.40
2023-04-19T15:06:48.665Z,56.50
2023-04-19T15:09:15.760Z,56.90
2023-04-19T15:11:43.130Z,57.00
2023-04-19T15:14:10.212Z,57.70
2023-04-19T15:16:37.169Z,58.10
2023-04-19T15:19:07.359Z,58.40
2023-04-19T15:21:34.429Z,58.60
2023-04-19T15:24:01.583Z,59.00
2023-04-19T15:26:28.374Z,58.60
2023-04-19T15:28:56.557Z,58.90
2023-04-19T15:31:25.072Z,59.30
2023-04-19T15:33:52.706Z,59.20
2023-04-19T15:36:19.580Z,59.30
2023-04-19T15:38:46.546Z,59.70
2023-04-19T15:41:13.488Z,60.10
2023-04-19T15:43:40.317Z,59.90
2023-04-19T15:46:07.236Z,60.00
2023-04-19T15:48:34.076Z,60.10
2023-04-19T15:51:02.792Z,60.70
2023-04-19T15:53:29.641Z,61.00
2023-04-19T15:55:57.190Z,61.10
2023-04-19T15:58:24.278Z,61.50
2023-04-19T16:00:51.302Z,61.50
2023-04-19T16:03:18.165Z,61.50
2023-04-19T16:05:45.386Z,61.80
2023-04-19T16:08:17.286Z,62.10
2023-04-19T16:10:45.242Z,61.90
2023-04-19T16:13:15.041Z,62.00
2023-04-19T16:15:42.580Z,62.20
2023-04-19T16:18:10.071Z,62.40
2023-04-19T16:20:37.609Z,62.70
2023-04-19T16:23:04.457Z,62.80
2023-04-19T16:25:32.285Z,62.90
2023-04-19T16:27:59.185Z,63.20
2023-04-19T16:30:28.825Z,63.50
2023-04-19T16:32:56.125Z,63.50
2023-04-19T16:35:23.834Z,63.70
2023-04-19T16:37:50.742Z,63.50
2023-04-19T16:40:17.509Z,63.60
2023-04-19T16:42:44.715Z,63.30
2023-04-19T16:45:11.534Z,63.50
2023-04-19T16:47:38.400Z,63.60
2023-04-19T16:50:06.373Z,63.10
2023-04-19T16:52:34.594Z,63.60
2023-04-19T16:55:04.321Z,63.70
2023-04-19T16:57:31.524Z,63.80
2023-04-19T16:59:59.021Z,64.00
2023-04-19T17:02:26.205Z,63.70
2023-04-19T17:04:53.264Z,63.90
2023-04-19T17:07:20.118Z,63.90
2023-04-19T17:09:47.938Z,64.10
2023-04-19T17:12:14.767Z,63.90
2023-04-19T17:14:41.663Z,64.20
2023-04-19T17:17:08.459Z,64.50
2023-04-19T17:19:36.080Z,64.80
2023-04-19T17:22:05.721Z,64.60
2023-04-19T17:24:33.860Z,64.80
2023-04-19T17:27:00.902Z,64.70
2023-04-19T17:29:27.760Z,64.90
2023-04-19T17:31:56.462Z,64.90
2023-04-19T17:34:23.246Z,65.70
2023-04-19T17:36:50.207Z,64.90
2023-04-19T17:39:18.162Z,64.80
2023-04-19T17:41:45.185Z,64.60
2023-04-19T17:44:13.053Z,64.50
2023-04-19T17:46:40.542Z,64.70
2023-04-19T17:49:08.183Z,64.80
2023-04-19T17:51:35.200Z,65.00
2023-04-19T17:54:01.976Z,64.80
2023-04-19T17:56:28.986Z,64.80
2023-04-19T17:58:55.943Z,64.60
2023-04-19T18:01:23.076Z,64.70
2023-04-19T18:03:50.816Z,64.60
2023-04-19T18:06:20.830Z,64.80
2023-04-19T18:08:47.636Z,64.60
2023-04-19T18:11:15.088Z,65.10
2023-04-19T18:13:42.446Z,65.40
2023-04-19T18:16:09.956Z,65.50
2023-04-19T18:18:36.948Z,65.30
2023-04-19T18:21:07.071Z,65.40
2023-04-19T18:23:34.285Z,64.80
2023-04-19T18:26:02.451Z,65.50
2023-04-19T18:28:29.662Z,65.50
2023-04-19T18:30:56.982Z,65.50
2023-04-19T18:33:24.109Z,65.40
2023-04-19T18:35:53.225Z,65.30
2023-04-19T18:38:22.795Z,65.50
2023-04-19T18:40:49.950Z,65.70
2023-04-19T18:43:16.709Z,66.00
2023-04-19T18:45:43.491Z,65.80
2023-04-19T18:48:10.358Z,66.00
2023-04-19T18:50:38.177Z,66.20
2023-04-19T18:53:04.919Z,65.90
2023-04-19T18:55:31.981Z,65.90
2023-04-19T18:58:01.449Z,67.40
2023-04-19T19:00:28.381Z,67.60
2023-04-19T19:02:57.062Z,67.80
2023-04-19T19:05:24.298Z,67.90
2023-04-19T19:07:51.446Z,67.00
2023-04-19T19:10:21.773Z,66.90
2023-04-19T19:12:50.223Z,67.10
2023-04-19T19:15:17.341Z,67.30
2023-04-19T19:17:49.240Z,67.50
2023-04-19T19:20:17.084Z,67.50
2023-04-19T19:22:44.315Z,67.50
2023-04-19T19:25:11.905Z,67.40
2023-04-19T19:27:40.112Z,67.30
2023-04-19T19:30:07.946Z,67.30
2023-04-19T19:32:34.925Z,67.40
2023-04-19T19:35:06.216Z,67.40
2023-04-19T19:37:36.383Z,68.30
2023-04-19T19:40:06.554Z,67.70
2023-04-19T19:42:34.588Z,67.70
2023-04-19T19:45:02.418Z,66.80
2023-04-19T19:47:31.830Z,67.10
2023-04-19T19:52:30.119Z,66.40
2023-04-19T19:54:57.078Z,66.30
2023-04-19T19:59:56.738Z,66.30
2023-04-19T20:02:25.294Z,66.40
2023-04-19T20:04:52.332Z,66.50
2023-04-19T20:07:37.210Z,66.60
2023-04-19T20:10:11.906Z,66.50
2023-04-19T20:12:43.372Z,66.30
2023-04-19T20:15:13.408Z,66.20
2023-04-19T20:17:40.762Z,66.40
2023-04-19T20:20:08.955Z,66.40
2023-04-19T20:22:36.018Z,66.50
2023-04-19T20:25:02.781Z,66.50
2023-04-19T20:27:29.857Z,66.80
2023-04-19T20:29:57.074Z,66.80
2023-04-19T20:32:24.203Z,66.60
2023-04-19T20:34:52.048Z,68.10
2023-04-19T20:37:19.040Z,67.30
2023-04-19T20:39:45.849Z,67.40
2023-04-19T20:42:12.634Z,67.50
2023-04-19T20:44:39.482Z,67.40
2023-04-19T20:47:09.386Z,67.40
2023-04-19T20:49:36.211Z,67.40
2023-04-19T20:52:03.037Z,67.40
2023-04-19T20:54:30.421Z,67.00
2023-04-19T20:57:01.853Z,67.00
2023-04-19T20:59:28.720Z,67.40
2023-04-19T21:01:55.630Z,67.20
2023-04-19T21:04:23.066Z,67.10
2023-04-19T21:06:49.972Z,67.30
2023-04-19T21:09:16.936Z,67.10
2023-04-19T21:11:44.084Z,67.10
2023-04-19T21:14:10.905Z,67.00
2023-04-19T21:16:37.700Z,67.30
2023-04-19T21:19:04.556Z,67.60
2023-04-19T21:21:32.562Z,67.40
2023-04-19T21:23:59.521Z,67.50
2023-04-19T21:26:27.014Z,67.80
2023-04-19T21:28:53.946Z,67.70
2023-04-19T21:31:20.788Z,67.90
2023-04-19T21:33:47.739Z,68.30
2023-04-19T21:36:15.013Z,68.90
2023-04-19T21:38:41.884Z,69.20
2023-04-19T21:41:08.687Z,69.30
2023-04-19T21:43:35.729Z,69.50
2023-04-19T21:46:05.176Z,69.70
2023-04-19T21:48:33.615Z,70.00
2023-04-19T21:51:00.994Z,70.10
2023-04-19T21:53:27.928Z,69.70
2023-04-19T21:55:55.039Z,70.00
2023-04-19T21:58:21.851Z,70.10
2023-04-19T22:00:48.872Z,70.30
2023-04-19T22:03:16.172Z,70.40
2023-04-19T22:05:46.022Z,70.70
2023-04-19T22:08:12.887Z,70.80
2023-04-19T22:10:41.059Z,70.90
2023-04-19T22:13:09.208Z,71.10
2023-04-19T22:15:36.567Z,71.20
2023-04-19T22:18:04.580Z,71.30
2023-04-19T22:20:33.789Z,71.30
2023-04-19T22:23:00.863Z,71.30
2023-04-19T22:25:27.743Z,71.10
2023-04-19T22:27:55.255Z,71.30
2023-04-19T22:30:22.596Z,71.40
2023-04-19T22:32:49.434Z,71.60
2023-04-19T22:35:16.416Z,71.70
2023-04-19T22:37:43.788Z,71.60
2023-04-19T22:40:11.078Z,71.70
2023-04-19T22:42:37.904Z,71.40
2023-04-19T22:45:05.707Z,71.50
2023-04-19T22:47:33.106Z,71.40
2023-04-19T22:49:59.985Z,71.40
2023-04-19T22:52:27.712Z,71.40
2023-04-19T22:54:54.574Z,71.40
2023-04-19T22:57:21.370Z,71.40
2023-04-19T22:59:48.911Z,71.50
2023-04-19T23:02:15.888Z,71.60
2023-04-19T23:04:44.785Z,71.40
2023-04-19T23:07:11.823Z,71.60
2023-04-19T23:09:39.472Z,71.40
2023-04-19T23:12:07.032Z,71.40
2023-04-19T23:14:33.951Z,71.40
2023-04-19T23:17:02.789Z,72.30
2023-04-19T23:19:30.559Z,71.70
2023-04-19T23:21:57.487Z,71.70
2023-04-19T23:24:24.978Z,71.70
2023-04-19T23:26:52.684Z,71.60
2023-04-19T23:29:20.564Z,71.40
2023-04-19T23:31:47.429Z,71.40
2023-04-19T23:34:14.749Z,71.20
2023-04-19T23:36:41.511Z,71.50
2023-04-19T23:39:08.287Z,71.40
2023-04-19T23:41:35.947Z,71.70
2023-04-19T23:44:02.757Z,72.70
2023-04-19T23:46:29.574Z,71.80
2023-04-19T23:48:56.954Z,71.90
2023-04-19T23:51:23.762Z,71.80
2023-04-19T23:53:50.645Z,71.90
2023-04-19T23:56:17.428Z,72.00
2023-04-19T23:58:44.197Z,72.20
